Ingalls, Kansas
Current Conditions -  °F | °C
As of 12:54 AM on Friday 31 Oct 2014 (Local Time) from KGCK Reporting Station
Clear Clear  
Wind Chill: 38°   Ceiling: Unl
Heat Index: 44°   Visibility: 10mi
Dew Point: 31°   Wind: 12mph
Humidity: 60%   Direction: 40°NE
Pressure: 30.39"   Gusts: NA
Location:  37.83°N, 100.45°W
Report Text: KGCK 310554Z AUTO 04010KT 10SM CLR 07/M01 A3039 RMK AO2 SLP281 T00671006 10117 20067 402000044 51020
Loading
Personal Weather Stations






























Interactive Weather Map
Tropical Storm Tracking
New forecast layout! Learn more

10-Day Weather Forecast

Advertisements
Track Severe Weather on mobile